createdAt,value
2023-04-02T05:27:20.635Z,6.20
2023-04-02T05:30:25.245Z,6.20
2023-04-02T05:33:28.273Z,6.20
2023-04-02T05:36:30.223Z,6.20
2023-04-02T05:39:32.907Z,6.20
2023-04-02T05:42:35.545Z,6.10
2023-04-02T05:45:39.056Z,6.20
2023-04-02T05:48:41.043Z,6.20
2023-04-02T05:51:43.738Z,6.20
2023-04-02T05:54:49.488Z,6.30
2023-04-02T05:58:34.414Z,6.30
2023-04-02T06:02:03.099Z,6.30
2023-04-02T06:05:12.583Z,6.30
2023-04-02T06:08:22.767Z,6.30
2023-04-02T06:11:46.920Z,6.30
2023-04-02T06:14:48.578Z,6.20
2023-04-02T06:18:01.039Z,6.20
2023-04-02T06:21:02.832Z,6.20
2023-04-02T06:24:04.743Z,6.20
2023-04-02T06:27:06.931Z,6.10
2023-04-02T06:30:14.402Z,6.10
2023-04-02T06:33:16.143Z,6.00
2023-04-02T06:36:19.378Z,6.00
2023-04-02T06:39:22.972Z,6.00
2023-04-02T06:42:42.771Z,6.00
2023-04-02T06:45:45.112Z,6.10
2023-04-02T06:48:46.775Z,6.10
2023-04-02T06:51:48.663Z,6.10
2023-04-02T06:54:50.793Z,6.10
2023-04-02T06:57:52.464Z,6.10
2023-04-02T07:00:54.104Z,6.10
2023-04-02T07:03:55.855Z,6.10
2023-04-02T07:06:58.015Z,6.10
2023-04-02T07:09:59.672Z,6.10
2023-04-02T07:13:02.486Z,6.10
2023-04-02T07:16:04.553Z,6.20
2023-04-02T07:19:06.462Z,6.20
2023-04-02T07:22:08.117Z,6.20
2023-04-02T07:25:10.871Z,6.20
2023-04-02T07:28:13.506Z,6.20
2023-04-02T07:31:20.199Z,6.20
2023-04-02T07:34:22.279Z,6.10
2023-04-02T07:37:24.285Z,6.10
2023-04-02T07:40:26.449Z,6.10
2023-04-02T07:43:28.100Z,6.10
2023-04-02T07:46:32.532Z,6.10
2023-04-02T07:49:34.277Z,6.10
2023-04-02T07:52:44.644Z,6.10
2023-04-02T07:55:52.546Z,6.10
2023-04-02T07:58:56.627Z,6.10
2023-04-02T08:01:59.934Z,6.10
2023-04-02T08:05:20.427Z,6.10
2023-04-02T08:08:22.708Z,6.10
2023-04-02T08:11:24.608Z,6.10
2023-04-02T08:14:26.254Z,6.10
2023-04-02T08:17:31.561Z,6.20
2023-04-02T08:20:33.360Z,6.20
2023-04-02T08:23:35.806Z,6.20
2023-04-02T08:26:37.664Z,6.20
2023-04-02T08:29:39.330Z,6.30
2023-04-02T08:32:41.509Z,6.40
2023-04-02T08:35:43.980Z,6.40
2023-04-02T08:38:46.144Z,6.40
2023-04-02T08:41:52.199Z,6.50
2023-04-02T08:45:23.050Z,6.50
2023-04-02T08:48:25.682Z,6.60
2023-04-02T08:51:35.211Z,6.60
2023-04-02T08:54:43.509Z,6.70
2023-04-02T08:58:05.525Z,6.80
2023-04-02T09:01:08.051Z,7.00
2023-04-02T09:04:15.371Z,7.00
2023-04-02T09:07:17.510Z,7.10
2023-04-02T09:10:19.314Z,7.20
2023-04-02T09:13:25.620Z,7.20
2023-04-02T09:16:48.701Z,7.40
2023-04-02T09:19:55.291Z,7.40
2023-04-02T09:22:57.061Z,7.50
2023-04-02T09:26:04.437Z,7.50
2023-04-02T09:29:12.718Z,7.50
2023-04-02T09:32:32.433Z,7.60
2023-04-02T09:35:53.340Z,7.80
2023-04-02T09:38:59.595Z,7.80
2023-04-02T09:42:06.450Z,8.00
2023-04-02T09:45:21.807Z,8.00
2023-04-02T09:48:33.178Z,8.20
2023-04-02T09:51:36.520Z,8.30
2023-04-02T09:54:42.688Z,8.40
2023-04-02T09:57:45.424Z,8.60
2023-04-02T10:00:51.143Z,8.60
2023-04-02T10:03:52.795Z,8.80
2023-04-02T10:06:58.257Z,8.90
2023-04-02T10:10:01.222Z,8.80
2023-04-02T10:13:06.609Z,8.90
2023-04-02T10:16:18.460Z,9.00
2023-04-02T10:19:25.320Z,9.20
2023-04-02T10:22:30.340Z,9.40
2023-04-02T10:25:34.536Z,9.40
2023-04-02T10:28:48.499Z,9.30
2023-04-02T10:32:14.275Z,9.20
2023-04-02T10:35:28.356Z,9.00
2023-04-02T10:38:39.136Z,9.00
2023-04-02T10:41:47.128Z,9.20
2023-04-02T10:45:02.148Z,9.60
2023-04-02T10:48:38.075Z,9.80
2023-04-02T10:51:40.128Z,10.10
2023-04-02T10:54:52.233Z,10.30
2023-04-02T10:57:54.133Z,10.30
2023-04-02T11:01:01.494Z,10.20
2023-04-02T11:04:08.654Z,10.00
2023-04-02T11:07:28.928Z,10.00
2023-04-02T11:10:32.858Z,10.10
2023-04-02T11:13:47.902Z,10.30
2023-04-02T11:16:50.164Z,10.80
2023-04-02T11:19:52.737Z,11.10
2023-04-02T11:23:13.756Z,11.30
2023-04-02T11:26:48.234Z,11.30
2023-04-02T11:29:50.749Z,11.00
2023-04-02T11:32:52.512Z,10.90
2023-04-02T11:35:55.374Z,11.10
2023-04-02T11:39:01.925Z,11.30
2023-04-02T11:42:18.524Z,11.50
2023-04-02T11:45:21.304Z,11.90
2023-04-02T11:48:23.016Z,11.90
2023-04-02T11:51:24.709Z,12.00
2023-04-02T11:54:28.565Z,12.20
2023-04-02T11:57:57.495Z,12.30
2023-04-02T12:01:19.267Z,12.30
2023-04-02T12:04:48.671Z,12.10
2023-04-02T12:08:10.021Z,12.30
2023-04-02T12:11:11.681Z,12.50
2023-04-02T12:14:35.493Z,12.30
2023-04-02T12:17:40.565Z,11.90
2023-04-02T12:20:47.182Z,11.70
2023-04-02T12:23:48.882Z,11.70
2023-04-02T12:27:15.247Z,11.70
2023-04-02T12:30:23.434Z,11.50
2023-04-02T12:33:30.596Z,11.40
2023-04-02T12:36:34.409Z,11.40
2023-04-02T12:39:36.343Z,11.30
2023-04-02T12:42:38.084Z,11.20
2023-04-02T12:45:40.255Z,11.40
2023-04-02T12:48:42.081Z,11.50
2023-04-02T12:51:43.821Z,11.50
2023-04-02T12:54:54.798Z,11.90
2023-04-02T12:57:57.221Z,12.10
2023-04-02T13:01:15.938Z,11.90
2023-04-02T13:04:18.256Z,11.70
2023-04-02T13:07:22.285Z,11.70
2023-04-02T13:10:25.704Z,11.80
2023-04-02T13:13:36.526Z,12.00
2023-04-02T13:16:39.841Z,11.90
2023-04-02T13:19:41.494Z,11.50
2023-04-02T13:22:43.147Z,11.50
2023-04-02T13:25:44.838Z,11.80
2023-04-02T13:29:18.438Z,11.90
2023-04-02T13:32:20.424Z,11.80
2023-04-02T13:35:22.611Z,11.50
2023-04-02T13:38:24.300Z,11.70
2023-04-02T13:41:27.877Z,12.00
2023-04-02T13:44:30.724Z,12.20
2023-04-02T13:47:32.631Z,12.10
2023-04-02T13:50:35.037Z,12.20
2023-04-02T13:53:36.974Z,12.30
2023-04-02T13:56:38.893Z,12.50
2023-04-02T13:59:40.535Z,12.70
2023-04-02T14:02:47.579Z,12.50
2023-04-02T14:06:13.363Z,12.70
2023-04-02T14:09:18.025Z,12.50
2023-04-02T14:12:50.200Z,12.20
2023-04-02T14:16:01.666Z,12.20
2023-04-02T14:19:32.194Z,12.50
2023-04-02T14:22:59.957Z,12.50
2023-04-02T14:26:09.032Z,12.20
2023-04-02T14:29:29.513Z,12.30
2023-04-02T14:32:46.915Z,12.50
2023-04-02T14:35:52.306Z,12.90
2023-04-02T14:39:12.771Z,12.90
2023-04-02T14:42:17.467Z,13.20
2023-04-02T14:45:39.057Z,13.60
2023-04-02T14:48:41.006Z,13.80
2023-04-02T14:51:57.734Z,13.40
2023-04-02T14:55:04.240Z,12.80
2023-04-02T14:58:09.915Z,12.30
2023-04-02T15:01:24.800Z,11.90
2023-04-02T15:04:32.928Z,12.00
2023-04-02T15:07:43.710Z,12.50
2023-04-02T15:10:56.154Z,13.00
2023-04-02T15:14:19.238Z,13.60
2023-04-02T15:17:21.030Z,13.70
2023-04-02T15:20:22.760Z,14.10
2023-04-02T15:23:49.721Z,14.10
2023-04-02T15:27:38.832Z,14.70
2023-04-02T15:30:44.114Z,14.70
2023-04-02T15:33:50.866Z,13.90
2023-04-02T15:36:59.155Z,13.60
2023-04-02T15:40:21.770Z,14.60
2023-04-02T15:43:54.257Z,15.40
2023-04-02T15:47:11.117Z,15.20
2023-04-02T15:50:44.993Z,14.90
2023-04-02T15:54:12.699Z,15.40
2023-04-02T15:57:50.354Z,15.70
2023-04-02T16:01:13.630Z,16.40
2023-04-02T16:04:26.923Z,16.90
2023-04-02T16:07:33.845Z,17.20
2023-04-02T16:10:42.327Z,17.50
2023-04-02T16:13:44.882Z,17.50
2023-04-02T16:16:47.208Z,17.20
2023-04-02T16:19:51.121Z,16.40
2023-04-02T16:23:00.449Z,15.50
2023-04-02T16:26:13.045Z,15.70
2023-04-02T16:29:14.714Z,16.20
2023-04-02T16:32:26.499Z,16.20
2023-04-02T16:36:01.185Z,16.30
2023-04-02T16:39:35.501Z,16.50
2023-04-02T16:43:11.334Z,16.40
2023-04-02T16:46:36.351Z,16.70
2023-04-02T16:49:44.147Z,16.90
2023-04-02T16:53:17.590Z,16.60
2023-04-02T16:56:21.854Z,15.90
2023-04-02T16:59:43.807Z,15.60
2023-04-02T17:02:54.429Z,15.30
2023-04-02T17:06:17.682Z,15.10
2023-04-02T17:09:28.230Z,14.90
2023-04-02T17:12:44.521Z,14.80
2023-04-02T17:16:09.544Z,14.20
2023-04-02T17:19:13.027Z,13.90
2023-04-02T17:22:21.677Z,13.50
2023-04-02T17:25:33.350Z,13.30
2023-04-02T17:28:38.125Z,12.80
2023-04-02T17:31:41.846Z,13.10
2023-04-02T17:34:43.565Z,13.30
2023-04-02T17:38:22.848Z,13.50
2023-04-02T17:41:52.396Z,13.50
2023-04-02T17:45:08.992Z,13.10
2023-04-02T17:48:29.288Z,12.80
2023-04-02T17:51:41.000Z,12.60
2023-04-02T17:54:55.514Z,12.50
2023-04-02T17:58:07.847Z,12.00
2023-04-02T18:01:13.247Z,11.60
2023-04-02T18:04:17.949Z,11.20
2023-04-02T18:07:41.687Z,10.90
2023-04-02T18:10:55.344Z,10.50
2023-04-02T18:14:04.523Z,10.10
2023-04-02T18:17:12.484Z,9.80
2023-04-02T18:20:20.827Z,9.60
2023-04-02T18:23:51.106Z,9.40
2023-04-02T18:27:26.594Z,9.20
2023-04-02T18:30:41.022Z,9.10
2023-04-02T18:34:04.654Z,8.90
2023-04-02T18:37:28.373Z,8.70
2023-04-02T18:40:49.861Z,8.50
2023-04-02T18:43:55.868Z,8.40
2023-04-02T18:47:22.301Z,8.20
2023-04-02T18:50:34.918Z,8.10
2023-04-02T18:53:36.913Z,8.00
2023-04-02T18:56:39.443Z,8.00
2023-04-02T18:59:54.602Z,7.80
2023-04-02T19:03:05.200Z,7.60
2023-04-02T19:06:19.321Z,7.50
2023-04-02T19:09:42.941Z,7.50
2023-04-02T19:12:44.602Z,7.40
2023-04-02T19:16:01.787Z,7.30
2023-04-02T19:19:23.180Z,7.20
2023-04-02T19:22:33.368Z,7.20
2023-04-02T19:25:43.313Z,7.00
2023-04-02T19:28:52.743Z,7.00
2023-04-02T19:31:56.164Z,7.00
2023-04-02T19:35:05.459Z,6.90
2023-04-02T19:38:19.359Z,6.80
2023-04-02T19:41:24.002Z,6.80
2023-04-02T19:44:25.800Z,6.80
2023-04-02T19:47:27.712Z,6.70
2023-04-02T19:50:29.698Z,6.70
2023-04-02T19:53:31.348Z,6.60
2023-04-02T19:56:33.259Z,6.50
2023-04-02T19:59:34.905Z,6.40
2023-04-02T20:02:36.622Z,6.40
2023-04-02T20:05:38.826Z,6.40
2023-04-02T20:08:40.974Z,6.40
2023-04-02T20:11:45.465Z,6.30
2023-04-02T20:14:47.132Z,6.30
2023-04-02T20:17:48.826Z,6.20
2023-04-02T20:20:50.673Z,6.20
2023-04-02T20:23:55.727Z,6.20
2023-04-02T20:27:00.673Z,6.20
2023-04-02T20:30:03.424Z,6.10
2023-04-02T20:33:07.903Z,6.00
2023-04-02T20:36:11.774Z,6.00
2023-04-02T20:39:19.204Z,5.90
2023-04-02T20:42:20.880Z,5.90
2023-04-02T20:45:24.292Z,5.90
2023-04-02T20:48:27.483Z,5.80
2023-04-02T20:51:29.667Z,5.80
2023-04-02T20:54:31.586Z,5.70
